Eos — FAB5642 — position and weather

sailwx.info

Track history (hours):
 
Tides and Currents Weather Stations Pressure Air Temp Water Temp Dewpoint Dewpoint Depression Visibility Wind Speed Wind Dir Waves Ship Positions

Eos

Last reported at 2018-Feb-22 15:46 UTC. Time now 2018-Feb-22 19:21 UTC.
Position N 47°39' W 003°27'.

Length 11 m.

Type: Sailing vessel. MMSI: 227214860.

Date/timePositionNaut miles runAvg speedWind from/ knotsBaromVisibWave heightAir tempDewpointWater temp
2018-Feb-22 15:46N 47°39' W 003°27'0 0.7
2018-Feb-22 15:30N 47°39' W 003°27'2 4.7
2018-Feb-22 15:00N 47°37' W 003°24'2 3.5
2018-Feb-22 14:30N 47°36' W 003°24'2 4.9
2018-Feb-22 14:00N 47°33' W 003°24'3 6.1
2018-Feb-22 13:30N 47°30' W 003°23'3 6.1
2018-Feb-22 13:00N 47°27' W 003°22'3 6.4
2018-Feb-22 12:30N 47°24' W 003°21'10 3.0
2018-Feb-22 09:04N 47°20' W 003°07'1 5.9
2018-Feb-22 08:53N 47°21' W 003°08'1 0.0
2018-Feb-21 15:59N 47°21' W 003°07'3 5.3
2018-Feb-21 15:30N 47°23' W 003°07'3 5.9
2018-Feb-21 15:00N 47°24' W 003°03'2 0.8
2018-Feb-21 12:28N 47°24' W 002°60'2 4.5
2018-Feb-21 12:00N 47°26' W 003°01'3 6.8
2018-Feb-21 11:30N 47°29' W 003°00'3 6.8
2018-Feb-21 11:00N 47°33' W 003°00'2 4.8
2018-Feb-21 10:30N 47°35' W 003°01'0 0.0
2018-Feb-20 14:51N 47°35' W 003°01'1 2.4
2018-Feb-20 14:30N 47°35' W 003°01'2 4.0
2018-Feb-20 14:00N 47°33' W 003°02'2 4.5
2018-Feb-20 13:30N 47°31' W 003°00'2 3.4
2018-Feb-20 12:59N 47°29' W 002°59'3 6.3
2018-Feb-20 12:30N 47°27' W 003°02'3 6.1
2018-Feb-20 12:00N 47°25' W 003°06'2 4.5
2018-Feb-20 11:30N 47°25' W 003°09'2 4.9
2018-Feb-20 11:00N 47°23' W 003°12'1 1.7
2018-Feb-20 10:30N 47°22' W 003°13'0 0.0
2018-Feb-19 17:04N 47°22' W 003°13'0 0.0
2018-Feb-19 16:58N 47°22' W 003°13'1 1.5
2018-Feb-19 16:30N 47°23' W 003°13'2 3.2
2018-Feb-19 16:00N 47°24' W 003°14'2 4.7
2018-Feb-19 15:29N 47°27' W 003°15'2 4.4
2018-Feb-19 15:00N 47°29' W 003°17'2 4.8
2018-Feb-19 14:30N 47°31' W 003°18'2 4.4
2018-Feb-19 14:00N 47°33' W 003°19'2 5.0
2018-Feb-19 13:30N 47°35' W 003°20'3 5.0
2018-Feb-19 13:00N 47°38' W 003°21'2 4.1
2018-Feb-19 12:30N 47°40' W 003°22'2 4.1
2018-Feb-19 12:00N 47°42' W 003°22'2 3.3
2018-Feb-19 11:30N 47°43' W 003°22'0 0.0
2018-Feb-18 16:15N 47°43' W 003°22'0 0.0
2018-Feb-18 16:00N 47°43' W 003°22'1 2.2
2018-Feb-18 15:30N 47°42' W 003°22'3 5.9
2018-Feb-18 15:00N 47°39' W 003°24'2 3.3
2018-Feb-18 14:28N 47°38' W 003°25'0 0.0
2018-Feb-18 13:58N 47°38' W 003°25'0 0.0
2018-Feb-18 13:28N 47°38' W 003°25'0 0.0
2018-Feb-18 12:58N 47°38' W 003°25'0 1.0
2018-Feb-18 12:30N 47°38' W 003°25'3 5.8
2018-Feb-18 12:00N 47°41' W 003°27'2 4.5
2018-Feb-18 11:30N 47°39' W 003°30'2 3.3
2018-Feb-18 11:01N 47°40' W 003°28'1 0.1
2018-Feb-17 17:25N 47°39' W 003°27'0 0.1
2018-Feb-17 17:00N 47°39' W 003°27'2 3.9
2018-Feb-17 16:30N 47°41' W 003°26'3 5.2
2018-Feb-17 16:00N 47°39' W 003°24'3 6.1
2018-Feb-17 15:30N 47°41' W 003°22'2 3.6
2018-Feb-17 14:59N 47°43' W 003°22'0 0.1
2018-Feb-17 13:41N 47°43' W 003°22'0 0.0
2018-Feb-17 13:28N 47°43' W 003°22'0 0.0
2018-Feb-17 12:59N 47°43' W 003°22'0 0.0
2018-Feb-17 12:28N 47°43' W 003°22'  
2018-Feb-14 09:48N 47°43' W 003°22'0 0.0
2018-Feb-14 09:30N 47°43' W 003°22'0 0.0
2018-Feb-14 09:00N 47°43' W 003°22'0 0.0
2018-Feb-14 08:30N 47°43' W 003°22'0 0.0
2018-Feb-14 08:00N 47°43' W 003°22'0 0.0
2018-Feb-14 07:30N 47°43' W 003°22'0 0.0
2018-Feb-14 07:00N 47°43' W 003°22'0 0.0
2018-Feb-14 06:30N 47°43' W 003°22'0 0.0
2018-Feb-14 06:00N 47°43' W 003°22'0 0.0
2018-Feb-14 05:30N 47°43' W 003°22'0 0.0
2018-Feb-14 05:00N 47°43' W 003°22'0 0.0
2018-Feb-14 04:29N 47°43' W 003°22'0 0.0
2018-Feb-14 03:59N 47°43' W 003°22'0 0.0
2018-Feb-14 03:30N 47°43' W 003°22'0 0.0
2018-Feb-14 03:00N 47°43' W 003°22'0 0.0
2018-Feb-14 02:30N 47°43' W 003°22'0 0.0
2018-Feb-14 02:00N 47°43' W 003°22'0 0.0
2018-Feb-14 01:30N 47°43' W 003°22'0 0.0
2018-Feb-14 01:00N 47°43' W 003°22'0 0.0
2018-Feb-14 00:29N 47°43' W 003°22'0 0.0
2018-Feb-13 23:59N 47°43' W 003°22'0 0.0
2018-Feb-13 23:30N 47°43' W 003°22'0 0.0
2018-Feb-13 23:00N 47°43' W 003°22'0 0.0
2018-Feb-13 22:30N 47°43' W 003°22'0 0.0
2018-Feb-13 22:00N 47°43' W 003°22'0 0.0
2018-Feb-13 21:29N 47°43' W 003°22'0 0.0
2018-Feb-13 20:59N 47°43' W 003°22'0 0.0
2018-Feb-13 20:29N 47°43' W 003°22'0 0.0
2018-Feb-13 20:00N 47°43' W 003°22'0 0.0
2018-Feb-13 19:29N 47°43' W 003°22'0 0.0
2018-Feb-13 18:59N 47°43' W 003°22'0 0.0
2018-Feb-13 18:29N 47°43' W 003°22'0 0.0
2018-Feb-13 17:59N 47°43' W 003°22'0 0.0
2018-Feb-13 17:29N 47°43' W 003°22'0 0.0
2018-Feb-13 17:00N 47°43' W 003°22'0 0.0
2018-Feb-13 16:29N 47°43' W 003°22'0 0.0
2018-Feb-13 15:59N 47°43' W 003°22'0 0.0
2018-Feb-13 15:29N 47°43' W 003°22'0 0.0
2018-Feb-13 15:00N 47°43' W 003°22'0 0.0
2018-Feb-13 14:30N 47°43' W 003°22'0 0.0
2018-Feb-13 14:00N 47°43' W 003°22'0 0.0
2018-Feb-13 13:29N 47°43' W 003°22'0 0.0
2018-Feb-13 13:00N 47°43' W 003°22'0 0.0
2018-Feb-13 12:29N 47°43' W 003°22'0 0.0
2018-Feb-13 11:59N 47°43' W 003°22'0 0.0
2018-Feb-13 11:29N 47°43' W 003°22'0 0.0
2018-Feb-13 10:59N 47°43' W 003°22'0 0.0
2018-Feb-13 10:29N 47°43' W 003°22'0 0.0
2018-Feb-13 09:59N 47°43' W 003°22'0 0.0
2018-Feb-12 16:50N 47°43' W 003°22'0 0.0
2018-Feb-12 16:29N 47°43' W 003°22'0 0.0
2018-Feb-12 15:59N 47°43' W 003°22'  
Track history (hours):
 
Tides and Currents Weather Stations Pressure Air Temp Water Temp Dewpoint Dewpoint Depression Visibility Wind Speed Wind Dir Waves Ship Positions

Eos

Last reported at 2018-Feb-22 15:46 UTC. Time now 2018-Feb-22 19:21 UTC.
Position N 47°39' W 003°27'.

Length 11 m.

Type: Sailing vessel. MMSI: 227214860.

Date/timePositionNaut miles runAvg speedWind from/ knotsBaromVisibWave heightAir tempDewpointWater temp
2018-Feb-22 15:46N 47°39' W 003°27'0 0.7
2018-Feb-22 15:30N 47°39' W 003°27'2 4.7
2018-Feb-22 15:00N 47°37' W 003°24'2 3.5
2018-Feb-22 14:30N 47°36' W 003°24'2 4.9
2018-Feb-22 14:00N 47°33' W 003°24'3 6.1
2018-Feb-22 13:30N 47°30' W 003°23'3 6.1
2018-Feb-22 13:00N 47°27' W 003°22'3 6.4
2018-Feb-22 12:30N 47°24' W 003°21'10 3.0
2018-Feb-22 09:04N 47°20' W 003°07'1 5.9
2018-Feb-22 08:53N 47°21' W 003°08'1 0.0
2018-Feb-21 15:59N 47°21' W 003°07'3 5.3
2018-Feb-21 15:30N 47°23' W 003°07'3 5.9
2018-Feb-21 15:00N 47°24' W 003°03'2 0.8
2018-Feb-21 12:28N 47°24' W 002°60'2 4.5
2018-Feb-21 12:00N 47°26' W 003°01'3 6.8
2018-Feb-21 11:30N 47°29' W 003°00'3 6.8
2018-Feb-21 11:00N 47°33' W 003°00'2 4.8
2018-Feb-21 10:30N 47°35' W 003°01'0 0.0
2018-Feb-20 14:51N 47°35' W 003°01'1 2.4
2018-Feb-20 14:30N 47°35' W 003°01'2 4.0
2018-Feb-20 14:00N 47°33' W 003°02'2 4.5
2018-Feb-20 13:30N 47°31' W 003°00'2 3.4
2018-Feb-20 12:59N 47°29' W 002°59'3 6.3
2018-Feb-20 12:30N 47°27' W 003°02'3 6.1
2018-Feb-20 12:00N 47°25' W 003°06'2 4.5
2018-Feb-20 11:30N 47°25' W 003°09'2 4.9
2018-Feb-20 11:00N 47°23' W 003°12'1 1.7
2018-Feb-20 10:30N 47°22' W 003°13'0 0.0
2018-Feb-19 17:04N 47°22' W 003°13'0 0.0
2018-Feb-19 16:58N 47°22' W 003°13'1 1.5
2018-Feb-19 16:30N 47°23' W 003°13'2 3.2
2018-Feb-19 16:00N 47°24' W 003°14'2 4.7
2018-Feb-19 15:29N 47°27' W 003°15'2 4.4
2018-Feb-19 15:00N 47°29' W 003°17'2 4.8
2018-Feb-19 14:30N 47°31' W 003°18'2 4.4
2018-Feb-19 14:00N 47°33' W 003°19'2 5.0
2018-Feb-19 13:30N 47°35' W 003°20'3 5.0
2018-Feb-19 13:00N 47°38' W 003°21'2 4.1
2018-Feb-19 12:30N 47°40' W 003°22'2 4.1
2018-Feb-19 12:00N 47°42' W 003°22'2 3.3
2018-Feb-19 11:30N 47°43' W 003°22'0 0.0
2018-Feb-18 16:15N 47°43' W 003°22'0 0.0
2018-Feb-18 16:00N 47°43' W 003°22'1 2.2
2018-Feb-18 15:30N 47°42' W 003°22'3 5.9
2018-Feb-18 15:00N 47°39' W 003°24'2 3.3
2018-Feb-18 14:28N 47°38' W 003°25'0 0.0
2018-Feb-18 13:58N 47°38' W 003°25'0 0.0
2018-Feb-18 13:28N 47°38' W 003°25'0 0.0
2018-Feb-18 12:58N 47°38' W 003°25'0 1.0
2018-Feb-18 12:30N 47°38' W 003°25'3 5.8
2018-Feb-18 12:00N 47°41' W 003°27'2 4.5
2018-Feb-18 11:30N 47°39' W 003°30'2 3.3
2018-Feb-18 11:01N 47°40' W 003°28'1 0.1
2018-Feb-17 17:25N 47°39' W 003°27'0 0.1
2018-Feb-17 17:00N 47°39' W 003°27'2 3.9
2018-Feb-17 16:30N 47°41' W 003°26'3 5.2
2018-Feb-17 16:00N 47°39' W 003°24'3 6.1
2018-Feb-17 15:30N 47°41' W 003°22'2 3.6
2018-Feb-17 14:59N 47°43' W 003°22'0 0.1
2018-Feb-17 13:41N 47°43' W 003°22'0 0.0
2018-Feb-17 13:28N 47°43' W 003°22'0 0.0
2018-Feb-17 12:59N 47°43' W 003°22'0 0.0
2018-Feb-17 12:28N 47°43' W 003°22'  
2018-Feb-14 09:48N 47°43' W 003°22'0 0.0
2018-Feb-14 09:30N 47°43' W 003°22'0 0.0
2018-Feb-14 09:00N 47°43' W 003°22'0 0.0
2018-Feb-14 08:30N 47°43' W 003°22'0 0.0
2018-Feb-14 08:00N 47°43' W 003°22'0 0.0
2018-Feb-14 07:30N 47°43' W 003°22'0 0.0
2018-Feb-14 07:00N 47°43' W 003°22'0 0.0
2018-Feb-14 06:30N 47°43' W 003°22'0 0.0
2018-Feb-14 06:00N 47°43' W 003°22'0 0.0
2018-Feb-14 05:30N 47°43' W 003°22'0 0.0
2018-Feb-14 05:00N 47°43' W 003°22'0 0.0
2018-Feb-14 04:29N 47°43' W 003°22'0 0.0
2018-Feb-14 03:59N 47°43' W 003°22'0 0.0
2018-Feb-14 03:30N 47°43' W 003°22'0 0.0
2018-Feb-14 03:00N 47°43' W 003°22'0 0.0
2018-Feb-14 02:30N 47°43' W 003°22'0 0.0
2018-Feb-14 02:00N 47°43' W 003°22'0 0.0
2018-Feb-14 01:30N 47°43' W 003°22'0 0.0
2018-Feb-14 01:00N 47°43' W 003°22'0 0.0
2018-Feb-14 00:29N 47°43' W 003°22'0 0.0
2018-Feb-13 23:59N 47°43' W 003°22'0 0.0
2018-Feb-13 23:30N 47°43' W 003°22'0 0.0
2018-Feb-13 23:00N 47°43' W 003°22'0 0.0
2018-Feb-13 22:30N 47°43' W 003°22'0 0.0
2018-Feb-13 22:00N 47°43' W 003°22'0 0.0
2018-Feb-13 21:29N 47°43' W 003°22'0 0.0
2018-Feb-13 20:59N 47°43' W 003°22'0 0.0
2018-Feb-13 20:29N 47°43' W 003°22'0 0.0
2018-Feb-13 20:00N 47°43' W 003°22'0 0.0
2018-Feb-13 19:29N 47°43' W 003°22'0 0.0
2018-Feb-13 18:59N 47°43' W 003°22'0 0.0
2018-Feb-13 18:29N 47°43' W 003°22'0 0.0
2018-Feb-13 17:59N 47°43' W 003°22'0 0.0
2018-Feb-13 17:29N 47°43' W 003°22'0 0.0
2018-Feb-13 17:00N 47°43' W 003°22'0 0.0
2018-Feb-13 16:29N 47°43' W 003°22'0 0.0
2018-Feb-13 15:59N 47°43' W 003°22'0 0.0
2018-Feb-13 15:29N 47°43' W 003°22'0 0.0
2018-Feb-13 15:00N 47°43' W 003°22'0 0.0
2018-Feb-13 14:30N 47°43' W 003°22'0 0.0
2018-Feb-13 14:00N 47°43' W 003°22'0 0.0
2018-Feb-13 13:29N 47°43' W 003°22'0 0.0
2018-Feb-13 13:00N 47°43' W 003°22'0 0.0
2018-Feb-13 12:29N 47°43' W 003°22'0 0.0
2018-Feb-13 11:59N 47°43' W 003°22'0 0.0
2018-Feb-13 11:29N 47°43' W 003°22'0 0.0
2018-Feb-13 10:59N 47°43' W 003°22'0 0.0
2018-Feb-13 10:29N 47°43' W 003°22'0 0.0
2018-Feb-13 09:59N 47°43' W 003°22'0 0.0
2018-Feb-12 16:50N 47°43' W 003°22'0 0.0
2018-Feb-12 16:29N 47°43' W 003°22'0 0.0
2018-Feb-12 15:59N 47°43' W 003°22'  

Dump ship's entire track history